createdAt,value
2018-10-05T00:00:12.222Z,84.17
2018-10-05T00:02:40.229Z,84.61
2018-10-05T00:05:08.485Z,84.35
2018-10-05T00:07:36.564Z,83.72
2018-10-05T00:10:04.621Z,83.67
2018-10-05T00:12:32.848Z,82.91
2018-10-05T00:15:01.027Z,82.64
2018-10-05T00:17:29.034Z,82.73
2018-10-05T00:19:57.366Z,83.66
2018-10-05T00:22:25.409Z,83.95
2018-10-05T00:24:53.495Z,83.77
2018-10-05T00:27:21.740Z,83.65
2018-10-05T00:29:49.746Z,84.10
2018-10-05T00:32:17.781Z,83.53
2018-10-05T00:34:45.890Z,82.31
2018-10-05T00:37:14.011Z,82.43
2018-10-05T00:39:42.116Z,83.72
2018-10-05T00:42:10.179Z,83.92
2018-10-05T00:44:38.173Z,84.70
2018-10-05T00:47:06.539Z,84.76
2018-10-05T00:49:34.546Z,84.76
2018-10-05T00:52:02.596Z,85.32
2018-10-05T00:54:30.581Z,85.51
2018-10-05T00:56:58.784Z,83.01
2018-10-05T00:59:26.856Z,82.82
2018-10-05T01:01:55.099Z,83.79
2018-10-05T01:04:23.144Z,84.02
2018-10-05T01:06:51.202Z,84.96
2018-10-05T01:09:19.216Z,84.47
2018-10-05T01:11:47.222Z,85.32
2018-10-05T01:14:16.392Z,85.21
2018-10-05T01:16:44.427Z,85.34
2018-10-05T01:19:12.427Z,85.16
2018-10-05T01:21:40.727Z,85.10
2018-10-05T01:24:08.772Z,85.35
2018-10-05T01:26:36.792Z,85.95
2018-10-05T01:29:04.814Z,85.93
2018-10-05T01:31:32.812Z,86.13
2018-10-05T01:34:00.808Z,86.55
2018-10-05T01:36:28.852Z,86.69
2018-10-05T01:38:56.995Z,86.91
2018-10-05T01:41:24.942Z,87.10
2018-10-05T01:43:52.998Z,86.94
2018-10-05T01:46:20.993Z,86.72
2018-10-05T01:48:49.042Z,86.88
2018-10-05T01:51:26.690Z,87.24
2018-10-05T01:53:54.753Z,87.12
2018-10-05T01:56:22.767Z,87.03
2018-10-05T01:58:50.823Z,86.65
2018-10-05T02:01:18.802Z,86.60
2018-10-05T02:03:46.849Z,85.98
2018-10-05T02:06:14.915Z,86.12
2018-10-05T02:08:43.114Z,85.90
2018-10-05T02:11:11.102Z,86.50
2018-10-05T02:13:39.127Z,86.92
2018-10-05T02:16:07.517Z,87.14
2018-10-05T02:18:35.580Z,86.75
2018-10-05T02:21:03.637Z,86.96
2018-10-05T02:23:31.732Z,87.41
2018-10-05T02:25:59.823Z,87.60
2018-10-05T02:28:27.850Z,87.55
2018-10-05T02:30:55.878Z,87.78
2018-10-05T02:33:23.929Z,88.01
2018-10-05T02:35:51.881Z,87.84
2018-10-05T02:38:20.093Z,87.68
2018-10-05T02:40:48.120Z,88.19
2018-10-05T02:43:16.137Z,88.06
2018-10-05T02:45:44.134Z,87.81
2018-10-05T02:48:12.174Z,86.59
2018-10-05T02:50:40.159Z,86.09
2018-10-05T02:53:08.212Z,86.83
2018-10-05T02:55:36.214Z,87.21
2018-10-05T02:58:04.251Z,87.51
2018-10-05T03:00:43.192Z,87.47
2018-10-05T03:03:11.552Z,87.40
2018-10-05T03:05:39.540Z,86.96
2018-10-05T03:08:07.635Z,87.50
2018-10-05T03:10:35.809Z,87.96
2018-10-05T03:13:03.984Z,88.09
2018-10-05T03:15:32.099Z,88.51
2018-10-05T03:18:00.196Z,88.54
2018-10-05T03:20:28.266Z,88.47
2018-10-05T03:22:56.299Z,88.66
2018-10-05T03:25:24.331Z,88.74
2018-10-05T03:27:52.354Z,88.24
2018-10-05T03:30:20.399Z,88.79
2018-10-05T03:32:48.449Z,88.61
2018-10-05T03:35:16.557Z,88.48
2018-10-05T03:37:44.599Z,88.29
2018-10-05T03:40:12.691Z,88.35
2018-10-05T03:42:40.705Z,88.76
2018-10-05T03:45:09.029Z,88.71
2018-10-05T03:47:37.039Z,88.74
2018-10-05T03:50:05.614Z,89.09
2018-10-05T03:52:33.666Z,88.69
2018-10-05T03:55:01.780Z,88.78
2018-10-05T03:57:29.804Z,88.72
2018-10-05T03:59:57.948Z,88.42
2018-10-05T04:02:25.955Z,88.75
2018-10-05T04:04:54.084Z,88.85
2018-10-05T04:07:22.086Z,88.93
2018-10-05T04:09:50.140Z,89.03
2018-10-05T04:12:18.203Z,89.20
2018-10-05T04:14:46.446Z,88.82
2018-10-05T04:17:14.481Z,88.83
2018-10-05T04:19:42.506Z,88.84
2018-10-05T04:22:10.516Z,89.11
2018-10-05T04:24:38.540Z,88.78
2018-10-05T04:27:06.770Z,88.78
2018-10-05T04:29:34.961Z,88.56
2018-10-05T04:32:03.038Z,88.54
2018-10-05T04:34:31.353Z,87.81
2018-10-05T04:36:59.496Z,87.73
2018-10-05T04:39:27.571Z,88.36
2018-10-05T04:41:55.637Z,88.71
2018-10-05T04:44:23.677Z,88.94
2018-10-05T04:46:51.889Z,89.19
2018-10-05T04:49:20.133Z,89.04
2018-10-05T04:51:48.307Z,89.10
2018-10-05T04:54:16.606Z,89.38
2018-10-05T04:56:44.826Z,89.03
2018-10-05T04:59:13.036Z,89.28
2018-10-05T05:01:41.265Z,89.46
2018-10-05T05:04:09.565Z,89.48
2018-10-05T05:06:37.837Z,88.95
2018-10-05T05:09:07.025Z,89.30
2018-10-05T05:11:35.425Z,89.60
2018-10-05T05:14:03.664Z,89.83
2018-10-05T05:16:31.977Z,89.96
2018-10-05T05:19:00.197Z,90.06
2018-10-05T05:21:28.512Z,89.67
2018-10-05T05:23:57.065Z,89.79
2018-10-05T05:26:25.804Z,89.62
2018-10-05T05:28:53.966Z,89.13
2018-10-05T05:31:22.493Z,89.18
2018-10-05T05:33:51.057Z,89.34
2018-10-05T05:36:19.305Z,89.59
2018-10-05T05:38:47.705Z,89.24
2018-10-05T05:41:16.005Z,89.28
2018-10-05T05:43:44.216Z,89.01
2018-10-05T05:46:12.477Z,89.00
2018-10-05T05:48:40.798Z,88.86
2018-10-05T05:51:09.246Z,88.40
2018-10-05T05:53:37.637Z,86.44
2018-10-05T05:56:12.445Z,84.00
2018-10-05T05:58:40.705Z,82.09
2018-10-05T06:01:09.081Z,80.52
2018-10-05T06:03:38.467Z,78.76
2018-10-05T06:06:06.825Z,77.89
2018-10-05T06:08:35.085Z,75.96
2018-10-05T06:11:03.705Z,74.23
2018-10-05T06:13:31.953Z,73.79
2018-10-05T06:16:00.451Z,72.92
2018-10-05T06:18:28.640Z,72.64
2018-10-05T06:20:56.887Z,71.47
2018-10-05T06:23:25.121Z,70.62
2018-10-05T06:25:53.299Z,68.70
2018-10-05T06:28:21.460Z,67.88
2018-10-05T06:30:49.814Z,65.13
2018-10-05T06:33:18.057Z,63.49
2018-10-05T06:35:46.300Z,61.28
2018-10-05T06:38:14.595Z,61.44
2018-10-05T06:40:42.959Z,60.72
2018-10-05T06:43:11.240Z,58.44
2018-10-05T06:45:39.428Z,60.79
2018-10-05T06:48:07.612Z,59.27
2018-10-05T06:50:35.852Z,56.88
2018-10-05T06:53:04.057Z,56.74
2018-10-05T06:55:32.317Z,55.62
2018-10-05T06:58:00.597Z,56.87
2018-10-05T07:00:28.797Z,57.49
2018-10-05T07:02:57.149Z,56.72
2018-10-05T07:05:25.278Z,55.28
2018-10-05T07:07:53.556Z,55.39
2018-10-05T07:10:21.777Z,55.26
2018-10-05T07:12:49.984Z,56.20
2018-10-05T07:15:18.234Z,55.41
2018-10-05T07:17:46.476Z,52.52
2018-10-05T07:20:14.732Z,54.25
2018-10-05T07:22:42.959Z,54.42
2018-10-05T07:25:11.178Z,53.48
2018-10-05T07:27:39.666Z,52.80
2018-10-05T07:30:08.469Z,52.49
2018-10-05T07:32:36.648Z,52.86
2018-10-05T07:35:04.892Z,51.15
2018-10-05T07:37:33.149Z,53.17
2018-10-05T07:40:01.411Z,52.08
2018-10-05T07:42:29.889Z,53.00
2018-10-05T07:44:58.228Z,52.30
2018-10-05T07:47:26.488Z,51.69
2018-10-05T07:49:54.728Z,50.51
2018-10-05T07:52:23.029Z,49.64
2018-10-05T07:54:51.408Z,49.61
2018-10-05T07:57:19.814Z,49.79
2018-10-05T07:59:48.128Z,49.82
2018-10-05T08:02:16.428Z,48.94
2018-10-05T08:04:44.660Z,49.97
2018-10-05T08:07:12.928Z,50.49
2018-10-05T08:09:42.723Z,50.17
2018-10-05T08:12:11.076Z,51.04
2018-10-05T08:14:39.342Z,49.53
2018-10-05T08:17:07.695Z,48.77
2018-10-05T08:19:35.887Z,50.57
2018-10-05T08:22:04.152Z,54.27
2018-10-05T08:24:32.365Z,52.90
2018-10-05T08:27:00.799Z,55.60
2018-10-05T08:29:29.065Z,58.78
2018-10-05T08:31:57.552Z,58.45
2018-10-05T08:34:25.906Z,59.80
2018-10-05T08:36:54.152Z,62.93
2018-10-05T08:39:22.414Z,62.67
2018-10-05T08:41:50.751Z,62.82
2018-10-05T08:44:18.879Z,63.80
2018-10-05T08:46:47.081Z,64.66
2018-10-05T08:49:15.275Z,65.19
2018-10-05T08:51:43.547Z,64.86
2018-10-05T08:54:11.834Z,65.80
2018-10-05T08:56:40.034Z,65.78
2018-10-05T08:59:08.321Z,65.95
2018-10-05T09:01:36.512Z,65.64
2018-10-05T09:04:04.792Z,66.17
2018-10-05T09:06:32.933Z,66.86
2018-10-05T09:09:01.304Z,67.14
2018-10-05T09:11:29.955Z,66.23
2018-10-05T09:13:58.420Z,68.93
2018-10-05T09:16:26.604Z,66.63
2018-10-05T09:18:54.919Z,67.86
2018-10-05T09:21:23.037Z,67.10
2018-10-05T09:23:51.336Z,67.70
2018-10-05T09:26:19.604Z,66.77
2018-10-05T09:28:47.936Z,68.68
2018-10-05T09:31:16.176Z,67.44
2018-10-05T09:33:44.436Z,66.83
2018-10-05T09:36:12.756Z,66.20
2018-10-05T09:38:41.076Z,68.11
2018-10-05T09:41:09.284Z,67.75
2018-10-05T09:43:37.617Z,69.19
2018-10-05T09:46:05.936Z,67.70
2018-10-05T09:48:34.184Z,64.88
2018-10-05T09:51:02.356Z,66.35
2018-10-05T09:53:30.617Z,65.38
2018-10-05T09:55:58.876Z,65.95
2018-10-05T09:58:27.136Z,65.26
2018-10-05T10:01:00.776Z,64.90
2018-10-05T10:03:31.397Z,66.72
2018-10-05T10:05:59.916Z,65.44
2018-10-05T10:08:28.540Z,65.46
2018-10-05T10:10:57.056Z,66.51
2018-10-05T10:13:25.681Z,64.97
2018-10-05T10:15:53.953Z,65.35
2018-10-05T10:18:22.221Z,64.83
2018-10-05T10:20:50.574Z,63.88
2018-10-05T10:23:18.834Z,63.69
2018-10-05T10:25:47.154Z,63.51
2018-10-05T10:28:15.861Z,65.53
2018-10-05T10:30:44.154Z,63.76
2018-10-05T10:33:12.494Z,62.61
2018-10-05T10:35:40.756Z,63.46
2018-10-05T10:38:09.055Z,65.39
2018-10-05T10:40:37.314Z,66.08
2018-10-05T10:43:05.863Z,63.13
2018-10-05T10:45:34.166Z,64.07
2018-10-05T10:48:02.465Z,62.33
2018-10-05T10:50:30.765Z,62.82
2018-10-05T10:52:58.959Z,63.89
2018-10-05T10:55:27.269Z,63.34
2018-10-05T10:57:55.488Z,64.46
2018-10-05T11:00:23.831Z,64.68
2018-10-05T11:02:52.119Z,59.06
2018-10-05T11:05:20.460Z,59.25
2018-10-05T11:07:48.787Z,58.29
2018-10-05T11:10:17.029Z,57.04
2018-10-05T11:12:45.269Z,59.06
2018-10-05T11:15:13.570Z,58.36
2018-10-05T11:17:41.752Z,57.66
2018-10-05T11:20:10.129Z,60.49
2018-10-05T11:22:38.268Z,60.07
2018-10-05T11:25:06.509Z,61.43
2018-10-05T11:27:34.709Z,60.36
2018-10-05T11:30:03.029Z,60.52
2018-10-05T11:32:31.268Z,59.42
2018-10-05T11:34:59.532Z,60.68
2018-10-05T11:37:27.789Z,60.62
2018-10-05T11:39:56.041Z,62.91
2018-10-05T11:49:43.285Z,60.62
2018-10-05T11:52:15.185Z,59.29
2018-10-05T12:00:35.657Z,60.56
2018-10-05T13:37:33.400Z,46.47
2018-10-05T13:40:02.003Z,45.82
2018-10-05T13:42:30.740Z,46.49
2018-10-05T13:44:59.030Z,48.06
2018-10-05T13:47:27.799Z,47.03
2018-10-05T13:49:56.019Z,46.21
2018-10-05T13:52:30.621Z,45.67
2018-10-05T13:55:02.341Z,46.79
2018-10-05T13:57:50.081Z,47.55
2018-10-05T14:00:20.861Z,47.79
2018-10-05T14:02:49.243Z,47.50
2018-10-05T14:05:21.222Z,47.91
2018-10-05T14:14:55.569Z,46.85
2018-10-05T14:17:24.090Z,47.68
2018-10-05T14:19:52.430Z,48.11
2018-10-05T14:22:22.809Z,51.26
2018-10-05T14:24:51.111Z,48.45
2018-10-05T14:27:24.629Z,49.59
2018-10-05T14:29:54.829Z,48.12
2018-10-05T14:32:32.817Z,51.51
2018-10-05T14:35:12.369Z,49.42
2018-10-05T14:37:40.838Z,49.89
2018-10-05T14:40:09.097Z,49.74
2018-10-05T14:42:37.378Z,50.35
2018-10-05T14:45:06.078Z,50.82
2018-10-05T14:47:34.349Z,48.12
2018-10-05T14:50:02.537Z,47.91
2018-10-05T14:52:30.718Z,48.18
2018-10-05T14:54:58.877Z,48.31
2018-10-05T14:57:27.145Z,48.87
2018-10-05T14:59:55.478Z,49.18
2018-10-05T15:02:23.720Z,49.42
2018-10-05T15:04:52.039Z,50.66
2018-10-05T15:07:20.263Z,49.75
2018-10-05T15:09:48.454Z,49.76
2018-10-05T15:12:16.680Z,50.88
2018-10-05T15:14:45.007Z,49.50
2018-10-05T15:17:13.264Z,50.22
2018-10-05T15:19:41.559Z,49.38
2018-10-05T15:22:09.851Z,49.87
2018-10-05T15:24:38.104Z,49.48
2018-10-05T15:27:06.992Z,49.48
2018-10-05T15:29:35.196Z,50.63
2018-10-05T15:32:03.611Z,49.26
2018-10-05T15:34:31.871Z,51.08
2018-10-05T15:37:00.184Z,48.67
2018-10-05T15:39:28.483Z,50.56
2018-10-05T15:41:56.803Z,50.89
2018-10-05T15:44:25.159Z,50.52
2018-10-05T15:47:02.039Z,51.21
2018-10-05T15:49:31.007Z,50.30
2018-10-05T15:51:59.759Z,51.51
2018-10-05T15:54:27.968Z,52.45
2018-10-05T15:56:56.259Z,52.01
2018-10-05T15:59:24.988Z,50.90
2018-10-05T16:01:53.179Z,51.66
2018-10-05T16:04:21.447Z,51.55
2018-10-05T16:06:52.448Z,51.47
2018-10-05T16:09:20.699Z,52.07
2018-10-05T16:11:49.048Z,51.74
2018-10-05T16:14:17.086Z,51.87
2018-10-05T16:16:45.075Z,54.00
2018-10-05T16:19:13.120Z,50.96
2018-10-05T16:21:41.163Z,50.41
2018-10-05T16:24:10.923Z,51.50
2018-10-05T16:26:39.175Z,51.60
2018-10-05T16:29:07.215Z,53.03
2018-10-05T16:31:35.243Z,57.39
2018-10-05T16:34:03.276Z,57.50
2018-10-05T16:36:31.283Z,58.63
2018-10-05T16:38:59.275Z,58.90
2018-10-05T16:41:27.429Z,59.22
2018-10-05T16:43:55.781Z,58.32
2018-10-05T16:46:23.948Z,59.20
2018-10-05T16:48:52.149Z,60.89
2018-10-05T16:51:20.381Z,62.12
2018-10-05T16:53:48.561Z,62.01
2018-10-05T16:56:16.810Z,60.30
2018-10-05T16:58:45.009Z,58.76
2018-10-05T17:01:13.368Z,57.37
2018-10-05T17:03:41.436Z,58.61
2018-10-05T17:06:09.413Z,61.80
2018-10-05T17:08:40.662Z,59.71
2018-10-05T17:11:08.629Z,58.52
2018-10-05T17:13:36.622Z,58.19
2018-10-05T17:16:04.693Z,57.49
2018-10-05T17:18:32.776Z,56.53
2018-10-05T17:21:00.889Z,55.15
2018-10-05T17:23:29.172Z,55.64
2018-10-05T17:25:57.363Z,54.16
2018-10-05T17:28:25.414Z,55.61
2018-10-05T17:30:53.404Z,59.56
2018-10-05T17:33:21.534Z,60.37
2018-10-05T17:35:49.652Z,61.49
2018-10-05T17:38:17.738Z,62.38
2018-10-05T17:40:47.708Z,61.06
2018-10-05T17:43:15.953Z,61.50
2018-10-05T17:45:44.036Z,62.09
2018-10-05T17:48:15.138Z,63.44
2018-10-05T17:50:43.188Z,61.98
2018-10-05T17:53:11.278Z,64.29
2018-10-05T17:55:39.599Z,61.27
2018-10-05T17:58:07.780Z,59.89
2018-10-05T18:00:42.469Z,60.35
2018-10-05T18:03:10.568Z,60.34
2018-10-05T18:05:38.624Z,59.81
2018-10-05T18:08:06.707Z,59.73
2018-10-05T18:10:34.694Z,59.54
2018-10-05T18:13:02.827Z,59.87
2018-10-05T18:15:31.023Z,59.19
2018-10-05T18:17:59.399Z,58.87
2018-10-05T18:20:27.564Z,58.82
2018-10-05T18:22:55.694Z,59.84
2018-10-05T18:25:23.967Z,61.03
2018-10-05T18:27:52.267Z,60.48
2018-10-05T18:30:20.360Z,60.59
2018-10-05T18:32:48.413Z,59.96
2018-10-05T18:35:16.692Z,60.91
2018-10-05T18:37:44.780Z,61.23
2018-10-05T18:40:13.362Z,62.92
2018-10-05T18:42:41.606Z,61.99
2018-10-05T18:45:10.091Z,62.52
2018-10-05T18:47:38.860Z,63.53
2018-10-05T18:50:07.551Z,63.76
2018-10-05T18:52:35.893Z,64.47
2018-10-05T18:55:04.351Z,65.08
2018-10-05T18:57:32.547Z,64.14
2018-10-05T19:00:00.731Z,63.95
2018-10-05T19:02:28.947Z,64.08
2018-10-05T19:04:57.247Z,63.27
2018-10-05T19:07:25.374Z,63.10
2018-10-05T19:09:53.493Z,62.10
2018-10-05T19:12:21.646Z,62.28
2018-10-05T19:14:49.858Z,61.97
2018-10-05T19:17:17.966Z,62.71
2018-10-05T19:19:46.074Z,63.99
2018-10-05T19:22:14.125Z,63.58
2018-10-05T19:24:42.214Z,63.85
2018-10-05T19:27:10.446Z,63.71
2018-10-05T19:29:38.655Z,62.79
2018-10-05T19:32:06.713Z,63.32
2018-10-05T19:34:34.854Z,63.35
2018-10-05T19:37:02.874Z,63.87
2018-10-05T19:39:31.146Z,63.64
2018-10-05T19:41:59.297Z,65.61
2018-10-05T19:44:27.420Z,65.24
2018-10-05T19:46:55.499Z,64.93
2018-10-05T19:49:24.300Z,65.33
2018-10-05T19:51:52.354Z,65.66
2018-10-05T19:54:20.417Z,67.54
2018-10-05T20:14:13.196Z,70.29
2018-10-05T20:40:32.828Z,69.10
2018-10-05T22:03:38.373Z,59.29
2018-10-05T22:16:02.229Z,60.12
2018-10-05T22:22:43.615Z,60.94
2018-10-05T22:25:17.904Z,61.03
2018-10-05T22:27:46.745Z,60.19
2018-10-05T22:30:15.056Z,60.80
2018-10-05T22:33:39.560Z,60.98
2018-10-05T23:25:27.609Z,63.26
2018-10-05T23:30:57.869Z,63.65
2018-10-05T23:33:26.141Z,63.12
2018-10-05T23:35:54.537Z,63.86
2018-10-05T23:38:22.768Z,63.63
2018-10-05T23:40:51.009Z,64.00
2018-10-05T23:43:19.222Z,64.02
2018-10-05T23:45:47.521Z,64.20
2018-10-05T23:48:15.898Z,64.97
2018-10-05T23:50:44.153Z,64.26
2018-10-05T23:53:13.839Z,64.49
2018-10-05T23:55:42.048Z,64.87
2018-10-05T23:58:10.258Z,65.47
